createdAt,value
2019-03-25T00:01:01.990Z,82.68
2019-03-25T00:03:52.217Z,83.72
2019-03-25T00:06:34.286Z,83.53
2019-03-25T00:09:12.705Z,83.39
2019-03-25T00:11:44.093Z,83.16
2019-03-25T00:14:23.359Z,84.32
2019-03-25T00:16:55.521Z,84.72
2019-03-25T00:19:34.109Z,83.44
2019-03-25T00:22:12.169Z,83.83
2019-03-25T00:24:45.925Z,83.99
2019-03-25T00:27:33.657Z,84.74
2019-03-25T00:30:11.774Z,86.14
2019-03-25T00:32:58.575Z,87.01
2019-03-25T00:35:42.489Z,88.68
2019-03-25T00:38:26.555Z,87.52
2019-03-25T00:41:07.256Z,85.38
2019-03-25T00:43:51.329Z,83.54
2019-03-25T00:46:38.438Z,83.74
2019-03-25T00:49:18.855Z,84.98
2019-03-25T00:52:02.418Z,84.40
2019-03-25T00:54:50.008Z,83.56
2019-03-25T00:57:32.420Z,83.79
2019-03-25T01:00:12.291Z,84.24
2019-03-25T01:03:01.370Z,84.25
2019-03-25T01:06:23.602Z,84.92
2019-03-25T01:09:11.965Z,86.40
2019-03-25T01:11:53.735Z,85.82
2019-03-25T01:21:19.934Z,84.56
2019-03-25T01:24:36.518Z,84.80
2019-03-25T01:28:08.756Z,84.45
2019-03-25T01:31:22.444Z,83.48
2019-03-25T01:34:42.245Z,85.66
2019-03-25T01:37:27.661Z,88.07
2019-03-25T01:39:59.155Z,87.69
2019-03-25T01:42:33.225Z,85.16
2019-03-25T01:45:10.526Z,83.98
2019-03-25T01:47:43.243Z,84.09
2019-03-25T01:50:16.229Z,84.15
2019-03-25T01:52:47.055Z,84.47
2019-03-25T01:55:21.977Z,85.15
2019-03-25T01:57:58.014Z,85.73
2019-03-25T02:00:29.531Z,86.96
2019-03-25T02:03:02.042Z,87.41
2019-03-25T02:05:34.375Z,85.11
2019-03-25T02:08:09.790Z,84.13
2019-03-25T02:10:42.656Z,84.50
2019-03-25T02:13:23.219Z,86.49
2019-03-25T02:15:56.411Z,85.56
2019-03-25T02:18:32.357Z,84.82
2019-03-25T02:21:07.837Z,85.97
2019-03-25T02:23:45.811Z,87.11
2019-03-25T02:26:19.134Z,89.86
2019-03-25T02:28:52.551Z,90.70
2019-03-25T02:31:26.258Z,91.82
2019-03-25T02:34:00.949Z,92.49
2019-03-25T02:36:33.559Z,93.64
2019-03-25T02:39:09.581Z,93.20
2019-03-25T02:41:43.378Z,93.63
2019-03-25T02:47:21.547Z,93.11
2019-03-25T02:49:56.184Z,90.67
2019-03-25T02:52:32.625Z,91.63
2019-03-25T02:55:08.755Z,90.87
2019-03-25T02:58:23.393Z,89.97
2019-03-25T03:01:06.797Z,89.34
2019-03-25T03:03:44.577Z,90.00
2019-03-25T03:06:14.719Z,89.16
2019-03-25T03:08:48.439Z,89.00
2019-03-25T03:11:19.111Z,88.69
2019-03-25T03:13:51.520Z,88.62
2019-03-25T03:16:26.914Z,90.31
2019-03-25T03:18:59.297Z,90.65
2019-03-25T03:21:33.437Z,88.92
2019-03-25T03:24:15.677Z,87.30
2019-03-25T03:26:49.048Z,87.71
2019-03-25T03:29:24.352Z,87.73
2019-03-25T03:31:58.856Z,87.56
2019-03-25T03:34:32.741Z,87.55
2019-03-25T03:37:31.273Z,89.54
2019-03-25T03:40:13.338Z,89.00
2019-03-25T03:42:48.191Z,87.06
2019-03-25T03:45:27.995Z,90.94
2019-03-25T03:48:05.965Z,90.91
2019-03-25T03:50:41.179Z,92.85
2019-03-25T03:56:12.810Z,90.45
2019-03-25T03:59:11.029Z,89.50
2019-03-25T04:01:46.475Z,92.12
2019-03-25T04:04:20.183Z,91.15
2019-03-25T04:06:52.953Z,93.66
2019-03-25T04:09:33.798Z,92.30
2019-03-25T04:12:13.910Z,92.37
2019-03-25T04:14:52.744Z,93.33
2019-03-25T04:17:33.861Z,95.96
2019-03-25T04:20:09.461Z,95.94
2019-03-25T04:22:57.326Z,93.73
2019-03-25T04:25:35.831Z,91.55
2019-03-25T04:28:08.964Z,90.82
2019-03-25T04:30:41.920Z,91.36
2019-03-25T04:33:14.457Z,93.03
2019-03-25T04:35:49.174Z,94.03
2019-03-25T04:38:23.373Z,93.89
2019-03-25T04:40:55.186Z,93.51
2019-03-25T04:43:26.492Z,93.56
2019-03-25T04:46:01.695Z,94.96
2019-03-25T04:48:32.396Z,95.96
2019-03-25T04:51:07.255Z,95.90
2019-03-25T04:53:53.419Z,95.94
2019-03-25T04:56:38.990Z,94.80
2019-03-25T04:59:05.579Z,95.63
2019-03-25T05:01:39.323Z,95.63
2019-03-25T05:04:21.599Z,93.55
2019-03-25T05:06:58.640Z,92.74
2019-03-25T05:09:34.015Z,92.33
2019-03-25T05:12:19.454Z,91.54
2019-03-25T05:15:06.338Z,91.00
2019-03-25T05:17:45.848Z,90.81
2019-03-25T05:20:32.723Z,90.45
2019-03-25T05:23:11.637Z,90.93
2019-03-25T05:25:57.211Z,90.63
2019-03-25T05:28:37.927Z,90.01
2019-03-25T05:31:15.328Z,89.29
2019-03-25T05:33:50.735Z,88.12
2019-03-25T05:36:24.781Z,86.21
2019-03-25T05:39:09.099Z,85.66
2019-03-25T05:41:44.019Z,84.96
2019-03-25T05:44:14.718Z,84.98
2019-03-25T05:46:50.443Z,82.87
2019-03-25T05:49:32.011Z,81.66
2019-03-25T05:52:16.341Z,81.61
2019-03-25T05:55:04.827Z,79.88
2019-03-25T05:57:40.411Z,78.48
2019-03-25T06:00:22.586Z,80.31
2019-03-25T06:03:11.227Z,78.55
2019-03-25T06:05:49.773Z,78.79
2019-03-25T06:08:23.737Z,80.18
2019-03-25T06:11:11.613Z,82.40
2019-03-25T06:13:57.473Z,83.93
2019-03-25T06:16:39.485Z,83.40
2019-03-25T06:19:14.573Z,80.50
2019-03-25T06:21:49.266Z,77.97
2019-03-25T06:24:22.609Z,77.25
2019-03-25T06:26:57.213Z,78.05
2019-03-25T06:29:39.786Z,79.54
2019-03-25T06:32:30.323Z,82.18
2019-03-25T06:35:18.742Z,83.35
2019-03-25T06:37:56.897Z,84.24
2019-03-25T06:40:29.944Z,84.91
2019-03-25T06:43:05.487Z,83.13
2019-03-25T06:45:38.547Z,82.45
2019-03-25T06:48:25.816Z,80.63
2019-03-25T06:51:10.793Z,82.43
2019-03-25T06:53:54.072Z,81.90
2019-03-25T06:56:44.507Z,81.68
2019-03-25T06:59:27.714Z,80.11
2019-03-25T07:02:16.647Z,82.02
2019-03-25T07:05:04.809Z,79.88
2019-03-25T07:07:44.721Z,78.49
2019-03-25T07:10:26.067Z,77.18
2019-03-25T07:12:57.429Z,75.86
2019-03-25T07:15:29.863Z,74.96
2019-03-25T07:18:01.445Z,72.85
2019-03-25T07:20:31.667Z,71.80
2019-03-25T07:23:03.056Z,70.77
2019-03-25T07:25:34.932Z,71.12
2019-03-25T07:28:06.307Z,68.96
2019-03-25T07:30:38.178Z,67.42
2019-03-25T07:33:09.278Z,64.73
2019-03-25T07:35:41.295Z,63.88
2019-03-25T07:38:13.945Z,64.70
2019-03-25T07:40:45.026Z,61.52
2019-03-25T07:43:20.234Z,66.15
2019-03-25T07:45:52.154Z,64.97
2019-03-25T07:48:22.925Z,67.03
2019-03-25T07:50:54.214Z,63.75
2019-03-25T07:53:27.910Z,65.02
2019-03-25T07:56:00.692Z,62.64
2019-03-25T07:58:30.865Z,69.01
2019-03-25T08:01:05.563Z,69.52
2019-03-25T08:03:37.180Z,65.85
2019-03-25T08:06:10.585Z,65.55
2019-03-25T08:08:41.994Z,61.61
2019-03-25T08:11:12.652Z,62.48
2019-03-25T08:13:47.302Z,62.92
2019-03-25T08:16:20.108Z,61.38
2019-03-25T08:18:52.875Z,60.23
2019-03-25T08:21:26.530Z,60.68
2019-03-25T08:24:00.304Z,61.63
2019-03-25T08:26:31.638Z,61.65
2019-03-25T08:29:01.660Z,60.38
2019-03-25T08:31:33.429Z,61.62
2019-03-25T08:34:09.617Z,58.67
2019-03-25T08:36:47.139Z,58.27
2019-03-25T08:39:23.567Z,56.86
2019-03-25T08:41:56.454Z,55.09
2019-03-25T08:44:27.725Z,55.95
2019-03-25T08:46:57.806Z,54.23
2019-03-25T08:49:29.715Z,57.18
2019-03-25T08:52:00.994Z,54.90
2019-03-25T08:54:31.265Z,54.03
2019-03-25T08:57:02.745Z,52.72
2019-03-25T08:59:32.497Z,52.40
2019-03-25T09:02:02.865Z,49.79
2019-03-25T09:04:34.944Z,50.40
2019-03-25T09:07:04.953Z,47.30
2019-03-25T09:09:37.616Z,49.13
2019-03-25T09:12:09.400Z,46.18
2019-03-25T09:14:41.180Z,45.78
2019-03-25T09:17:12.534Z,44.45
2019-03-25T09:19:43.637Z,46.07
2019-03-25T09:22:15.261Z,44.47
2019-03-25T09:24:46.771Z,42.38
2019-03-25T09:27:17.892Z,43.55
2019-03-25T09:29:48.064Z,41.87
2019-03-25T09:32:18.488Z,43.91
2019-03-25T09:34:48.611Z,41.02
2019-03-25T09:37:20.244Z,41.91
2019-03-25T09:39:50.971Z,39.37
2019-03-25T09:42:22.380Z,40.02
2019-03-25T09:44:53.030Z,37.19
2019-03-25T09:47:23.324Z,36.33
2019-03-25T09:49:53.704Z,34.74
2019-03-25T09:52:25.118Z,34.02
2019-03-25T09:54:55.079Z,32.67
2019-03-25T09:57:24.996Z,33.49
2019-03-25T09:59:57.056Z,33.70
2019-03-25T10:02:27.415Z,31.73
2019-03-25T10:05:00.344Z,36.50
2019-03-25T10:07:31.546Z,34.60
2019-03-25T10:10:01.812Z,33.68
2019-03-25T10:12:31.647Z,34.51
2019-03-25T10:15:03.003Z,34.71
2019-03-25T10:17:34.938Z,33.30
2019-03-25T10:20:07.739Z,35.20
2019-03-25T10:22:37.924Z,33.03
2019-03-25T10:25:11.985Z,32.16
2019-03-25T10:27:42.349Z,31.35
2019-03-25T10:30:16.088Z,32.34
2019-03-25T10:32:48.860Z,33.57
2019-03-25T10:35:19.387Z,33.20
2019-03-25T10:37:49.598Z,32.27
2019-03-25T10:40:21.252Z,33.77
2019-03-25T10:42:52.359Z,32.85
2019-03-25T10:45:22.461Z,32.04
2019-03-25T10:47:55.065Z,31.56
2019-03-25T10:50:25.378Z,35.63
2019-03-25T10:52:57.792Z,34.49
2019-03-25T10:55:30.893Z,33.44
2019-03-25T10:58:01.377Z,35.56
2019-03-25T11:00:31.377Z,35.37
2019-03-25T11:03:01.481Z,34.18
2019-03-25T11:05:33.106Z,33.25
2019-03-25T11:08:04.707Z,34.68
2019-03-25T11:10:35.360Z,33.25
2019-03-25T11:13:05.497Z,38.24
2019-03-25T11:15:37.012Z,33.66
2019-03-25T11:18:07.748Z,38.45
2019-03-25T11:20:38.902Z,36.81
2019-03-25T11:23:10.291Z,33.92
2019-03-25T11:25:40.903Z,35.70
2019-03-25T11:28:12.334Z,35.98
2019-03-25T11:30:52.225Z,38.08
2019-03-25T11:33:23.269Z,38.25
2019-03-25T11:35:54.739Z,37.05
2019-03-25T11:38:25.423Z,37.58
2019-03-25T11:40:55.955Z,35.96
2019-03-25T11:43:28.341Z,36.47
2019-03-25T11:45:58.896Z,36.90
2019-03-25T11:48:30.741Z,37.87
2019-03-25T11:51:06.212Z,37.73
2019-03-25T11:53:38.485Z,36.43
2019-03-25T11:56:11.720Z,34.39
2019-03-25T11:58:43.950Z,35.31
2019-03-25T12:01:15.162Z,37.15
2019-03-25T12:03:45.380Z,35.98
2019-03-25T12:06:16.764Z,36.41
2019-03-25T12:08:48.604Z,36.36
2019-03-25T12:11:18.558Z,37.43
2019-03-25T12:13:48.707Z,38.05
2019-03-25T12:16:21.193Z,37.19
2019-03-25T12:18:51.589Z,38.06
2019-03-25T12:21:23.649Z,37.93
2019-03-25T12:23:53.750Z,37.49
2019-03-25T12:26:23.886Z,36.62
2019-03-25T12:28:56.745Z,36.65
2019-03-25T12:31:29.880Z,35.71
2019-03-25T12:34:01.199Z,33.70
2019-03-25T12:36:33.204Z,34.39
2019-03-25T12:39:04.086Z,34.29
2019-03-25T12:41:35.897Z,33.66
2019-03-25T12:44:07.614Z,33.37
2019-03-25T12:46:38.777Z,33.61
2019-03-25T12:49:11.372Z,32.23
2019-03-25T12:51:50.196Z,32.54
2019-03-25T12:54:26.257Z,32.31
2019-03-25T12:57:05.053Z,31.97
2019-03-25T12:59:41.578Z,32.97
2019-03-25T13:02:26.273Z,33.44
2019-03-25T13:05:06.483Z,35.14
2019-03-25T13:07:44.219Z,33.29
2019-03-25T13:10:30.978Z,32.84
2019-03-25T13:13:02.314Z,32.22
2019-03-25T13:15:47.396Z,32.42
2019-03-25T13:18:24.307Z,32.52
2019-03-25T13:20:58.819Z,33.49
2019-03-25T13:23:34.916Z,33.71
2019-03-25T13:26:07.205Z,32.94
2019-03-25T13:28:37.662Z,34.28
2019-03-25T13:31:09.673Z,33.39
2019-03-25T13:33:40.166Z,34.25
2019-03-25T13:36:16.164Z,35.37
2019-03-25T13:38:46.507Z,35.53
2019-03-25T13:41:17.002Z,35.57
2019-03-25T13:43:47.634Z,36.07
2019-03-25T13:46:19.586Z,36.37
2019-03-25T13:48:50.201Z,36.18
2019-03-25T13:51:20.561Z,36.63
2019-03-25T13:53:53.821Z,37.06
2019-03-25T13:56:25.212Z,39.14
2019-03-25T13:58:55.928Z,41.06
2019-03-25T14:01:28.129Z,41.22
2019-03-25T14:03:58.799Z,40.59
2019-03-25T14:06:29.184Z,40.92
2019-03-25T14:08:59.147Z,41.04
2019-03-25T14:11:29.380Z,41.99
2019-03-25T14:14:00.319Z,42.36
2019-03-25T14:16:31.805Z,43.17
2019-03-25T14:19:05.838Z,43.68
2019-03-25T14:21:36.543Z,44.72
2019-03-25T14:24:08.845Z,44.38
2019-03-25T14:26:41.680Z,45.80
2019-03-25T14:29:11.747Z,46.01
2019-03-25T14:31:42.896Z,46.80
2019-03-25T14:34:16.313Z,47.10
2019-03-25T14:36:46.905Z,47.75
2019-03-25T14:39:18.661Z,48.20
2019-03-25T14:41:49.069Z,48.42
2019-03-25T14:44:19.757Z,48.15
2019-03-25T14:46:52.018Z,48.38
2019-03-25T14:49:23.502Z,48.54
2019-03-25T14:51:54.109Z,49.23
2019-03-25T14:54:27.183Z,49.14
2019-03-25T14:56:57.194Z,48.58
2019-03-25T14:59:29.777Z,47.99
2019-03-25T15:02:01.661Z,47.40
2019-03-25T15:04:31.882Z,46.82
2019-03-25T15:07:02.283Z,48.07
2019-03-25T15:09:33.775Z,48.66
2019-03-25T15:12:07.201Z,49.17
2019-03-25T15:14:38.360Z,49.95
2019-03-25T15:17:08.893Z,50.13
2019-03-25T15:19:40.051Z,49.54
2019-03-25T15:22:11.617Z,49.55
2019-03-25T15:24:41.893Z,49.31
2019-03-25T15:27:14.727Z,48.72
2019-03-25T15:30:06.938Z,48.39
2019-03-25T15:32:40.176Z,47.95
2019-03-25T15:35:11.448Z,48.66
2019-03-25T15:37:43.028Z,48.63
2019-03-25T15:40:16.211Z,48.79
2019-03-25T15:42:50.526Z,48.23
2019-03-25T15:45:22.678Z,47.37
2019-03-25T15:47:53.450Z,46.98
2019-03-25T15:50:24.159Z,46.02
2019-03-25T15:52:58.996Z,45.56
2019-03-25T15:55:33.022Z,45.34
2019-03-25T16:00:47.445Z,45.19
2019-03-25T16:03:17.391Z,45.37
2019-03-25T16:05:50.394Z,45.77
2019-03-25T16:08:22.283Z,45.13
2019-03-25T16:10:55.640Z,45.35
2019-03-25T16:13:28.078Z,43.89
2019-03-25T16:16:00.615Z,44.21
2019-03-25T16:18:38.272Z,44.43
2019-03-25T16:21:10.404Z,46.01
2019-03-25T16:23:44.191Z,47.62
2019-03-25T16:26:18.934Z,48.89
2019-03-25T16:28:51.549Z,50.44
2019-03-25T16:31:24.759Z,51.16
2019-03-25T16:33:57.009Z,51.73
2019-03-25T16:36:30.685Z,53.91
2019-03-25T16:39:05.767Z,54.13
2019-03-25T16:41:40.475Z,55.49
2019-03-25T16:44:15.731Z,55.61
2019-03-25T16:46:52.195Z,56.25
2019-03-25T16:49:25.528Z,56.19
2019-03-25T16:51:58.824Z,56.74
2019-03-25T16:54:32.348Z,57.72
2019-03-25T16:57:06.974Z,58.48
2019-03-25T16:59:41.472Z,59.82
2019-03-25T17:02:12.496Z,61.04
2019-03-25T17:04:44.181Z,62.69
2019-03-25T17:07:17.335Z,64.10
2019-03-25T17:09:50.534Z,66.45
2019-03-25T17:12:24.325Z,67.74
2019-03-25T17:14:57.970Z,69.39
2019-03-25T17:17:31.294Z,70.84
2019-03-25T17:20:03.910Z,71.54
2019-03-25T17:22:36.488Z,71.98
2019-03-25T17:25:11.347Z,72.59
2019-03-25T17:27:44.311Z,72.40
2019-03-25T17:30:17.093Z,72.65
2019-03-25T17:32:49.703Z,73.65
2019-03-25T17:35:23.979Z,74.33
2019-03-25T17:37:59.610Z,75.47
2019-03-25T17:40:33.064Z,76.20
2019-03-25T17:43:05.813Z,77.04
2019-03-25T17:45:42.101Z,78.00
2019-03-25T17:48:15.784Z,79.90
2019-03-25T17:50:48.577Z,81.46
2019-03-25T17:53:21.749Z,82.65
2019-03-25T17:55:55.255Z,83.37
2019-03-25T17:58:29.601Z,84.84
2019-03-25T18:01:03.262Z,85.21
2019-03-25T18:03:36.614Z,85.23
2019-03-25T18:06:10.885Z,85.67
2019-03-25T18:08:45.062Z,84.84
2019-03-25T18:11:16.910Z,86.05
2019-03-25T18:13:48.679Z,87.38
2019-03-25T18:16:22.289Z,87.81
2019-03-25T18:18:55.635Z,87.77
2019-03-25T18:21:26.438Z,87.95
2019-03-25T18:24:00.274Z,88.64
2019-03-25T18:26:32.431Z,88.13
2019-03-25T18:29:07.817Z,87.51
2019-03-25T18:31:43.999Z,87.64
2019-03-25T18:34:15.833Z,87.80
2019-03-25T18:36:47.707Z,88.46
2019-03-25T18:39:20.268Z,89.78
2019-03-25T18:41:56.203Z,90.81
2019-03-25T18:44:28.903Z,91.32
2019-03-25T18:47:01.934Z,92.07
2019-03-25T18:49:35.692Z,92.87
2019-03-25T18:52:08.323Z,93.10
2019-03-25T18:54:43.174Z,93.23
2019-03-25T18:57:15.787Z,93.64
2019-03-25T18:59:46.726Z,93.64
2019-03-25T19:02:20.798Z,94.11
2019-03-25T19:04:53.167Z,94.28
2019-03-25T19:07:27.282Z,94.56
2019-03-25T19:09:59.977Z,94.85
2019-03-25T19:12:32.705Z,95.23
2019-03-25T19:15:07.208Z,95.83
2019-03-25T19:17:41.114Z,95.99
2019-03-25T19:20:22.408Z,96.25
2019-03-25T19:22:54.194Z,96.21
2019-03-25T19:25:27.507Z,96.36
2019-03-25T19:27:59.965Z,96.34
2019-03-25T19:30:36.467Z,96.48
2019-03-25T19:33:09.706Z,96.98
2019-03-25T19:35:45.504Z,97.22
2019-03-25T19:38:24.277Z,96.72
2019-03-25T19:41:32.257Z,97.17
2019-03-25T19:44:07.161Z,97.57
2019-03-25T19:46:54.768Z,98.01
2019-03-25T19:49:53.956Z,98.28
2019-03-25T20:02:22.456Z,100.00
2019-03-25T20:12:27.072Z,100.00
2019-03-25T20:15:17.419Z,100.00
2019-03-25T20:18:30.062Z,100.00
2019-03-25T20:21:20.986Z,100.00
2019-03-25T20:30:32.934Z,100.00
2019-03-25T20:33:24.628Z,100.00
2019-03-25T20:36:12.404Z,100.00
2019-03-25T20:39:02.729Z,100.00
2019-03-25T20:42:09.849Z,100.00
2019-03-25T20:44:51.284Z,100.00
2019-03-25T20:47:45.442Z,100.00
2019-03-25T20:53:30.898Z,100.00
2019-03-25T20:56:47.628Z,100.00
2019-03-25T20:59:27.986Z,100.00
2019-03-25T21:02:07.181Z,100.00
2019-03-25T21:04:50.307Z,100.00
2019-03-25T21:07:44.500Z,100.00
2019-03-25T21:10:41.987Z,100.00
2019-03-25T21:16:50.738Z,100.00
2019-03-25T21:19:29.834Z,100.00
2019-03-25T21:22:07.988Z,100.00
2019-03-25T21:24:53.388Z,100.00
2019-03-25T21:27:47.099Z,100.00
2019-03-25T21:30:23.122Z,100.00
2019-03-25T21:32:58.424Z,100.00
2019-03-25T21:35:44.598Z,100.00
2019-03-25T21:38:18.714Z,100.00
2019-03-25T21:41:05.709Z,100.00
2019-03-25T21:43:40.226Z,100.00
2019-03-25T21:46:12.002Z,100.00
2019-03-25T21:48:44.187Z,100.00
2019-03-25T21:51:19.357Z,99.33
2019-03-25T21:53:53.284Z,96.57
2019-03-25T21:56:26.066Z,95.08
2019-03-25T22:14:08.411Z,97.78
2019-03-25T22:22:56.342Z,99.08
2019-03-25T22:25:29.989Z,99.17
2019-03-25T22:28:11.523Z,99.30
2019-03-25T22:30:46.318Z,99.21
2019-03-25T22:33:25.687Z,99.66
2019-03-25T22:35:52.523Z,100.00
2019-03-25T22:38:34.422Z,100.00
2019-03-25T22:41:09.681Z,100.00
2019-03-25T22:43:41.847Z,100.00
2019-03-25T22:46:13.442Z,100.00
2019-03-25T22:48:46.201Z,100.00
2019-03-25T22:51:19.217Z,100.00
2019-03-25T22:53:52.671Z,100.00
2019-03-25T22:56:26.370Z,100.00
2019-03-25T22:59:03.458Z,100.00
2019-03-25T23:01:36.990Z,100.00
2019-03-25T23:04:15.614Z,100.00
2019-03-25T23:06:48.593Z,100.00
2019-03-25T23:09:20.352Z,100.00
2019-03-25T23:11:50.493Z,100.00
2019-03-25T23:14:21.395Z,100.00
2019-03-25T23:16:55.112Z,100.00
2019-03-25T23:19:27.181Z,100.00
2019-03-25T23:21:58.808Z,100.00
2019-03-25T23:24:31.454Z,100.00
2019-03-25T23:27:10.489Z,100.00
2019-03-25T23:29:48.840Z,100.00
2019-03-25T23:32:31.629Z,100.00
2019-03-25T23:35:06.501Z,100.00
2019-03-25T23:37:50.547Z,99.77
2019-03-25T23:40:33.040Z,99.49
2019-03-25T23:43:23.072Z,99.62
2019-03-25T23:46:08.763Z,98.87
2019-03-25T23:48:41.508Z,98.26
2019-03-25T23:51:13.492Z,98.15
2019-03-25T23:53:52.773Z,97.56
2019-03-25T23:56:28.359Z,97.78
2019-03-25T23:59:00.188Z,97.51
